createdAt,value
2019-02-22T00:00:05.174Z,0
2019-02-22T00:01:15.095Z,0
2019-02-22T00:02:24.415Z,0
2019-02-22T00:03:34.343Z,0
2019-02-22T00:04:44.295Z,0
2019-02-22T00:05:53.815Z,0
2019-02-22T00:07:03.745Z,0
2019-02-22T00:08:13.478Z,0
2019-02-22T00:09:22.928Z,0
2019-02-22T00:10:32.648Z,0
2019-02-22T00:11:42.591Z,0
2019-02-22T00:12:52.564Z,0
2019-02-22T00:14:02.516Z,0
2019-02-22T00:15:12.447Z,0
2019-02-22T00:16:22.189Z,0
2019-02-22T00:17:32.136Z,0
2019-02-22T00:18:42.135Z,0
2019-02-22T00:19:53.512Z,0
2019-02-22T00:21:03.481Z,0
2019-02-22T00:22:13.194Z,0
2019-02-22T00:23:22.880Z,0
2019-02-22T00:24:32.064Z,0
2019-02-22T00:25:42.011Z,0
2019-02-22T00:26:51.692Z,0
2019-02-22T00:28:01.623Z,0
2019-02-22T00:29:11.563Z,0
2019-02-22T00:30:21.602Z,0
2019-02-22T00:31:31.598Z,0
2019-02-22T00:32:42.507Z,0
2019-02-22T00:33:52.452Z,0
2019-02-22T00:35:02.270Z,0
2019-02-22T00:36:14.024Z,0
2019-02-22T00:37:23.773Z,0
2019-02-22T00:38:34.385Z,0
2019-02-22T00:39:44.074Z,0
2019-02-22T00:40:54.034Z,0
2019-02-22T00:42:03.983Z,0
2019-02-22T00:43:13.948Z,0
2019-02-22T00:44:23.918Z,0
2019-02-22T00:45:33.907Z,0
2019-02-22T00:46:43.834Z,0
2019-02-22T00:47:53.794Z,0
2019-02-22T00:49:03.488Z,0
2019-02-22T00:50:13.432Z,0
2019-02-22T00:51:23.382Z,0
2019-02-22T00:52:38.148Z,0
2019-02-22T00:53:48.110Z,0
2019-02-22T00:54:58.078Z,0
2019-02-22T00:56:08.061Z,0
2019-02-22T00:57:18.011Z,0
2019-02-22T00:58:27.471Z,0
2019-02-22T00:59:37.417Z,0
2019-02-22T01:00:47.118Z,0
2019-02-22T01:01:57.056Z,0
2019-02-22T01:03:07.004Z,0
2019-02-22T01:04:16.958Z,0
2019-02-22T01:05:25.917Z,0
2019-02-22T01:06:35.623Z,0
2019-02-22T01:07:45.057Z,0
2019-02-22T01:08:55.010Z,0
2019-02-22T01:10:05.171Z,0
2019-02-22T01:11:15.132Z,0
2019-02-22T01:12:24.834Z,0
2019-02-22T01:13:34.537Z,0
2019-02-22T01:14:44.479Z,0
2019-02-22T01:15:54.418Z,0
2019-02-22T01:17:04.324Z,0
2019-02-22T01:18:14.287Z,0
2019-02-22T01:19:23.978Z,0
2019-02-22T01:20:33.920Z,0
2019-02-22T01:21:43.858Z,0
2019-02-22T01:22:53.546Z,0
2019-02-22T01:24:03.039Z,0
2019-02-22T01:25:12.741Z,0
2019-02-22T01:26:22.509Z,0
2019-02-22T01:27:32.464Z,0
2019-02-22T01:28:41.919Z,0
2019-02-22T01:29:51.621Z,0
2019-02-22T01:31:01.576Z,0
2019-02-22T01:32:11.544Z,0
2019-02-22T01:33:21.501Z,0
2019-02-22T01:34:31.445Z,0
2019-02-22T01:35:41.385Z,0
2019-02-22T01:36:51.100Z,0
2019-02-22T01:38:01.053Z,0
2019-02-22T01:39:10.763Z,0
2019-02-22T01:40:20.733Z,0
2019-02-22T01:41:30.438Z,0
2019-02-22T01:42:40.136Z,0
2019-02-22T01:43:49.605Z,0
2019-02-22T01:44:59.583Z,0
2019-02-22T01:46:09.527Z,0
2019-02-22T01:47:19.470Z,0
2019-02-22T01:48:29.406Z,0
2019-02-22T01:49:39.132Z,0
2019-02-22T01:50:48.574Z,0
2019-02-22T01:51:58.284Z,0
2019-02-22T01:53:08.227Z,0
2019-02-22T01:54:17.918Z,0
2019-02-22T01:55:27.878Z,0
2019-02-22T01:56:37.833Z,0
2019-02-22T01:57:47.779Z,0
2019-02-22T01:58:57.732Z,0
2019-02-22T02:00:07.750Z,0
2019-02-22T02:01:17.717Z,0
2019-02-22T02:02:27.661Z,0
2019-02-22T02:03:37.097Z,0
2019-02-22T02:04:47.031Z,0
2019-02-22T02:05:56.984Z,0
2019-02-22T02:07:06.421Z,0
2019-02-22T02:08:16.119Z,0
2019-02-22T02:09:26.058Z,0
2019-02-22T02:10:35.501Z,0
2019-02-22T02:11:44.941Z,0
2019-02-22T02:12:54.889Z,0
2019-02-22T02:14:04.903Z,0
2019-02-22T02:15:14.859Z,0
2019-02-22T02:16:24.823Z,0
2019-02-22T02:17:34.772Z,0
2019-02-22T02:18:44.472Z,0
2019-02-22T02:19:53.670Z,0
2019-02-22T02:21:03.392Z,0
2019-02-22T02:22:13.111Z,0
2019-02-22T02:23:22.791Z,0
2019-02-22T02:24:32.231Z,0
2019-02-22T02:25:42.174Z,0
2019-02-22T02:26:52.158Z,0
2019-02-22T02:28:02.098Z,0
2019-02-22T02:29:12.162Z,0
2019-02-22T02:30:22.140Z,0
2019-02-22T02:31:31.850Z,0
2019-02-22T02:32:41.805Z,0
2019-02-22T02:33:51.795Z,0
2019-02-22T02:35:01.757Z,0
2019-02-22T02:36:11.731Z,0
2019-02-22T02:37:21.671Z,0
2019-02-22T02:38:31.384Z,0
2019-02-22T02:39:41.087Z,0
2019-02-22T02:40:50.770Z,0
2019-02-22T02:42:00.713Z,0
2019-02-22T02:43:10.441Z,0
2019-02-22T02:44:20.125Z,0
2019-02-22T02:45:29.614Z,0
2019-02-22T02:46:39.554Z,0
2019-02-22T02:47:49.282Z,0
2019-02-22T02:48:59.233Z,0
2019-02-22T02:50:09.208Z,0
2019-02-22T02:51:18.931Z,0
2019-02-22T02:52:28.897Z,0
2019-02-22T02:53:38.865Z,0
2019-02-22T02:54:48.582Z,0
2019-02-22T02:55:58.283Z,0
2019-02-22T02:57:08.300Z,0
2019-02-22T02:58:17.552Z,0
2019-02-22T02:59:26.999Z,0
2019-02-22T03:00:36.441Z,0
2019-02-22T03:01:46.205Z,0
2019-02-22T03:02:55.895Z,0
2019-02-22T03:04:05.838Z,0
2019-02-22T03:05:15.782Z,0
2019-02-22T03:06:25.497Z,0
2019-02-22T03:07:35.464Z,0
2019-02-22T03:08:45.414Z,0
2019-02-22T03:09:55.108Z,0
2019-02-22T03:11:04.826Z,0
2019-02-22T03:12:27.739Z,0
2019-02-22T03:13:37.695Z,0
2019-02-22T03:14:47.643Z,0
2019-02-22T03:15:57.341Z,0
2019-02-22T03:17:07.379Z,0
2019-02-22T03:18:17.332Z,0
2019-02-22T03:19:27.279Z,0
2019-02-22T03:20:36.980Z,0
2019-02-22T03:21:46.949Z,0
2019-02-22T03:22:56.934Z,0
2019-02-22T03:24:06.628Z,0
2019-02-22T03:25:16.633Z,0
2019-02-22T03:26:26.098Z,0
2019-02-22T03:27:35.778Z,0
2019-02-22T03:28:45.737Z,0
2019-02-22T03:29:55.454Z,0
2019-02-22T03:31:05.437Z,0
2019-02-22T03:32:15.424Z,0
2019-02-22T03:33:25.469Z,0
2019-02-22T03:34:35.294Z,0
2019-02-22T03:35:45.246Z,0
2019-02-22T03:36:55.227Z,0
2019-02-22T03:38:05.918Z,0
2019-02-22T03:39:15.722Z,0
2019-02-22T03:40:25.418Z,0
2019-02-22T03:41:40.384Z,0
2019-02-22T03:42:50.071Z,0
2019-02-22T03:44:00.025Z,0
2019-02-22T03:45:09.732Z,0
2019-02-22T03:46:19.690Z,0
2019-02-22T03:47:29.674Z,0
2019-02-22T03:48:42.788Z,0
2019-02-22T03:49:52.747Z,0
2019-02-22T03:51:02.723Z,0
2019-02-22T03:52:12.671Z,0
2019-02-22T03:53:22.374Z,0
2019-02-22T03:54:32.072Z,0
2019-02-22T03:55:41.811Z,0
2019-02-22T03:56:51.305Z,0
2019-02-22T03:58:01.283Z,0
2019-02-22T03:59:10.991Z,0
2019-02-22T04:00:20.979Z,0
2019-02-22T04:01:30.921Z,0
2019-02-22T04:02:40.629Z,0
2019-02-22T04:03:50.592Z,0
2019-02-22T04:05:00.537Z,0
2019-02-22T04:06:10.525Z,0
2019-02-22T04:07:20.215Z,0
2019-02-22T04:08:29.411Z,0
2019-02-22T04:09:39.372Z,0
2019-02-22T04:10:49.317Z,0
2019-02-22T04:11:59.007Z,0
2019-02-22T04:13:08.966Z,0
2019-02-22T04:14:18.681Z,0
2019-02-22T04:15:28.674Z,0
2019-02-22T04:16:38.383Z,0
2019-02-22T04:17:48.076Z,0
2019-02-22T04:18:57.524Z,0
2019-02-22T04:20:07.385Z,0
2019-02-22T04:21:17.349Z,0
2019-02-22T04:22:27.306Z,0
2019-02-22T04:23:37.261Z,0
2019-02-22T04:24:47.192Z,0
2019-02-22T04:25:56.657Z,0
2019-02-22T04:27:06.738Z,0
2019-02-22T04:28:16.432Z,0
2019-02-22T04:29:25.888Z,0
2019-02-22T04:30:37.889Z,0
2019-02-22T04:31:47.618Z,0
2019-02-22T04:32:57.554Z,0
2019-02-22T04:34:07.014Z,0
2019-02-22T04:35:16.788Z,0
2019-02-22T04:36:26.505Z,0
2019-02-22T04:37:36.194Z,0
2019-02-22T04:38:46.166Z,0
2019-02-22T04:39:55.887Z,0
2019-02-22T04:41:05.584Z,0
2019-02-22T04:42:15.499Z,0
2019-02-22T04:43:25.441Z,0
2019-02-22T04:44:35.173Z,0
2019-02-22T04:45:44.392Z,0
2019-02-22T04:46:54.090Z,0
2019-02-22T04:48:04.043Z,0
2019-02-22T04:49:13.746Z,0
2019-02-22T04:50:23.732Z,0
2019-02-22T04:51:33.681Z,0
2019-02-22T04:52:43.643Z,0
2019-02-22T04:53:53.342Z,0
2019-02-22T04:55:03.301Z,0
2019-02-22T04:56:13.027Z,0
2019-02-22T04:57:22.986Z,0
2019-02-22T04:58:32.702Z,0
2019-02-22T04:59:42.664Z,0
2019-02-22T05:00:52.640Z,0
2019-02-22T05:02:02.578Z,0
2019-02-22T05:03:12.253Z,0
2019-02-22T05:04:22.267Z,0
2019-02-22T05:05:32.214Z,0
2019-02-22T05:06:42.159Z,0
2019-02-22T05:07:51.852Z,0
2019-02-22T05:09:01.847Z,0
2019-02-22T05:10:11.286Z,0
2019-02-22T05:11:20.985Z,0
2019-02-22T05:12:30.685Z,0
2019-02-22T05:13:40.377Z,0
2019-02-22T05:14:50.353Z,0
2019-02-22T05:16:00.281Z,0
2019-02-22T05:17:10.229Z,0
2019-02-22T05:18:20.171Z,0
2019-02-22T05:19:29.926Z,0
2019-02-22T05:20:39.630Z,0
2019-02-22T05:21:49.333Z,0
2019-02-22T05:23:12.376Z,0
2019-02-22T05:24:21.831Z,0
2019-02-22T05:25:31.787Z,0
2019-02-22T05:26:41.255Z,0
2019-02-22T05:27:50.717Z,0
2019-02-22T05:29:00.412Z,0
2019-02-22T05:30:10.105Z,0
2019-02-22T05:31:19.542Z,0
2019-02-22T05:32:29.233Z,0
2019-02-22T05:33:38.936Z,0
2019-02-22T05:34:48.641Z,0
2019-02-22T05:35:58.612Z,0
2019-02-22T05:37:08.403Z,0
2019-02-22T05:38:18.350Z,0
2019-02-22T05:39:28.061Z,0
2019-02-22T05:40:38.013Z,0
2019-02-22T05:41:47.738Z,0
2019-02-22T05:42:57.715Z,0
2019-02-22T05:44:07.671Z,0
2019-02-22T05:45:17.674Z,4
2019-02-22T05:46:27.197Z,0
2019-02-22T05:47:37.168Z,4
2019-02-22T05:48:47.155Z,0
2019-02-22T05:49:56.893Z,4
2019-02-22T05:51:06.582Z,4
2019-02-22T05:52:16.612Z,4
2019-02-22T05:53:26.590Z,8
2019-02-22T05:54:36.560Z,8
2019-02-22T05:55:49.038Z,8
2019-02-22T05:57:02.221Z,12
2019-02-22T05:58:11.931Z,12
2019-02-22T05:59:21.132Z,12
2019-02-22T06:00:31.203Z,12
2019-02-22T06:01:40.931Z,16
2019-02-22T06:02:50.925Z,16
2019-02-22T06:04:00.876Z,20
2019-02-22T06:05:10.822Z,20
2019-02-22T06:06:20.561Z,20
2019-02-22T06:07:30.271Z,28
2019-02-22T06:08:40.284Z,28
2019-02-22T06:09:50.010Z,32
2019-02-22T06:11:00.057Z,32
2019-02-22T06:12:10.022Z,40
2019-02-22T06:13:19.958Z,40
2019-02-22T06:14:29.670Z,44
2019-02-22T06:15:39.714Z,48
2019-02-22T06:16:48.903Z,52
2019-02-22T06:17:58.862Z,64
2019-02-22T06:19:08.321Z,64
2019-02-22T06:20:18.298Z,68
2019-02-22T06:21:28.000Z,76
2019-02-22T06:22:37.461Z,72
2019-02-22T06:23:46.949Z,80
2019-02-22T06:24:56.619Z,92
2019-02-22T06:26:06.488Z,96
2019-02-22T06:27:16.462Z,96
2019-02-22T06:28:26.151Z,92
2019-02-22T06:29:35.839Z,100
2019-02-22T06:30:45.537Z,104
2019-02-22T06:31:55.617Z,124
2019-02-22T06:33:05.609Z,152
2019-02-22T06:34:15.568Z,188
2019-02-22T06:35:25.522Z,212
2019-02-22T06:36:35.472Z,204
2019-02-22T06:37:45.427Z,200
2019-02-22T06:38:55.784Z,224
2019-02-22T06:40:05.227Z,248
2019-02-22T06:41:15.210Z,264
2019-02-22T06:42:24.921Z,272
2019-02-22T06:43:34.615Z,272
2019-02-22T06:44:44.569Z,288
2019-02-22T06:45:54.371Z,308
2019-02-22T06:47:04.096Z,300
2019-02-22T06:48:13.793Z,356
2019-02-22T06:49:23.481Z,356
2019-02-22T06:50:41.167Z,392
2019-02-22T06:51:51.089Z,428
2019-02-22T06:53:00.786Z,412
2019-02-22T06:54:11.009Z,392
2019-02-22T06:55:21.008Z,428
2019-02-22T06:56:31.534Z,476
2019-02-22T06:57:41.631Z,484
2019-02-22T06:58:51.384Z,460
2019-02-22T07:00:01.345Z,452
2019-02-22T07:01:10.784Z,460
2019-02-22T07:02:20.484Z,464
2019-02-22T07:03:30.183Z,452
2019-02-22T07:04:39.623Z,476
2019-02-22T07:05:49.340Z,480
2019-02-22T07:06:59.046Z,496
2019-02-22T07:08:09.008Z,552
2019-02-22T07:09:18.974Z,540
2019-02-22T07:10:28.918Z,596
2019-02-22T07:11:40.326Z,576
2019-02-22T07:13:01.442Z,540
2019-02-22T07:14:11.153Z,504
2019-02-22T07:15:21.109Z,528
2019-02-22T07:16:31.074Z,604
2019-02-22T07:17:40.763Z,640
2019-02-22T07:18:52.379Z,684
2019-02-22T07:20:02.337Z,676
2019-02-22T07:21:12.036Z,640
2019-02-22T07:22:21.743Z,732
2019-02-22T07:23:31.715Z,760
2019-02-22T07:24:41.667Z,808
2019-02-22T07:25:51.608Z,952
2019-02-22T07:27:01.561Z,1016
2019-02-22T07:28:11.263Z,1040
2019-02-22T07:29:22.184Z,1092
2019-02-22T07:30:32.265Z,1164
2019-02-22T07:31:41.717Z,1228
2019-02-22T07:32:51.777Z,1372
2019-02-22T07:34:01.810Z,1520
2019-02-22T07:35:16.840Z,1532
2019-02-22T07:36:26.572Z,1520
2019-02-22T07:37:36.267Z,1572
2019-02-22T07:38:46.258Z,1676
2019-02-22T07:39:55.985Z,1696
2019-02-22T07:41:05.976Z,1724
2019-02-22T07:42:15.927Z,1812
2019-02-22T07:43:25.873Z,1916
2019-02-22T07:44:35.895Z,2120
2019-02-22T07:45:45.863Z,2292
2019-02-22T07:46:55.816Z,2344
2019-02-22T07:48:05.805Z,2356
2019-02-22T07:49:15.520Z,2476
2019-02-22T07:50:25.479Z,2620
2019-02-22T07:51:35.163Z,2688
2019-02-22T07:52:47.570Z,2604
2019-02-22T07:53:57.533Z,2448
2019-02-22T07:55:07.639Z,2292
2019-02-22T07:56:19.164Z,2212
2019-02-22T07:57:28.773Z,2180
2019-02-22T07:58:38.491Z,2132
2019-02-22T07:59:48.047Z,2108
2019-02-22T08:00:57.537Z,2108
2019-02-22T08:02:07.257Z,2144
2019-02-22T08:03:16.701Z,2096
2019-02-22T08:04:26.660Z,2044
2019-02-22T08:05:36.449Z,1988
2019-02-22T08:06:47.422Z,1948
2019-02-22T08:07:56.869Z,1996
2019-02-22T08:09:06.324Z,2088
2019-02-22T08:10:16.034Z,2324
2019-02-22T08:11:26.002Z,2536
2019-02-22T08:12:35.990Z,2804
2019-02-22T08:13:45.813Z,3312
2019-02-22T08:14:55.495Z,3652
2019-02-22T08:16:05.448Z,3964
2019-02-22T08:17:17.149Z,3900
2019-02-22T08:18:27.113Z,3672
2019-02-22T08:19:37.169Z,3820
2019-02-22T08:20:46.632Z,3584
2019-02-22T08:21:56.370Z,3440
2019-02-22T08:23:07.639Z,3756
2019-02-22T08:24:17.589Z,3560
2019-02-22T08:25:27.302Z,3480
2019-02-22T08:26:37.017Z,3432
2019-02-22T08:27:58.788Z,3332
2019-02-22T08:29:08.737Z,3252
2019-02-22T08:30:18.446Z,3116
2019-02-22T08:31:28.143Z,3084
2019-02-22T08:32:38.111Z,3044
2019-02-22T08:33:48.045Z,3076
2019-02-22T08:34:57.747Z,3108
2019-02-22T08:36:07.834Z,3044
2019-02-22T08:37:17.810Z,3120
2019-02-22T08:38:27.539Z,3196
2019-02-22T08:39:37.239Z,3352
2019-02-22T08:40:47.192Z,3932
2019-02-22T08:41:57.135Z,4544
2019-02-22T08:43:06.828Z,4812
2019-02-22T08:44:16.777Z,5444
2019-02-22T08:45:26.475Z,6276
2019-02-22T08:46:36.440Z,6152
2019-02-22T08:47:46.417Z,5976
2019-02-22T08:48:56.121Z,5504
2019-02-22T08:50:06.084Z,5292
2019-02-22T08:51:15.539Z,5060
2019-02-22T08:52:25.230Z,4844
2019-02-22T08:53:34.944Z,4888
2019-02-22T08:54:54.402Z,5020
2019-02-22T08:56:04.341Z,5196
2019-02-22T08:57:13.843Z,5428
2019-02-22T08:58:23.531Z,5620
2019-02-22T08:59:33.225Z,5708
2019-02-22T09:00:43.241Z,5924
2019-02-22T09:01:53.511Z,6648
2019-02-22T09:03:03.249Z,6964
2019-02-22T09:04:12.977Z,7452
2019-02-22T09:05:22.950Z,9328
2019-02-22T09:06:32.961Z,9240
2019-02-22T09:07:42.943Z,11156
2019-02-22T09:08:52.898Z,9976
2019-02-22T09:10:02.835Z,10692
2019-02-22T09:11:12.283Z,10348
2019-02-22T09:12:22.290Z,10796
2019-02-22T09:13:42.763Z,10720
2019-02-22T09:14:52.582Z,10900
2019-02-22T09:16:01.816Z,10808
2019-02-22T09:17:11.536Z,10836
2019-02-22T09:18:21.483Z,10540
2019-02-22T09:19:31.454Z,10224
2019-02-22T09:20:41.173Z,9908
2019-02-22T09:21:51.143Z,9856
2019-02-22T09:23:01.091Z,9832
2019-02-22T09:24:11.129Z,9780
2019-02-22T09:25:20.832Z,9772
2019-02-22T09:26:30.843Z,9772
2019-02-22T09:27:40.805Z,9820
2019-02-22T09:28:50.505Z,9888
2019-02-22T09:30:06.364Z,9928
2019-02-22T09:31:16.150Z,10028
2019-02-22T09:32:25.613Z,10364
2019-02-22T09:33:35.566Z,10600
2019-02-22T09:34:46.212Z,10736
2019-02-22T09:35:56.042Z,10816
2019-02-22T09:37:05.994Z,10784
2019-02-22T09:38:15.715Z,10812
2019-02-22T09:39:25.732Z,10740
2019-02-22T09:40:35.751Z,10960
2019-02-22T09:41:45.770Z,11224
2019-02-22T09:42:55.730Z,11536
2019-02-22T09:44:05.928Z,12040
2019-02-22T09:45:30.580Z,12376
2019-02-22T09:46:40.562Z,12812
2019-02-22T09:47:50.506Z,12848
2019-02-22T09:49:00.495Z,12828
2019-02-22T09:50:10.516Z,13760
2019-02-22T09:51:19.981Z,14332
2019-02-22T09:52:29.957Z,14940
2019-02-22T09:53:39.410Z,16096
2019-02-22T09:54:49.416Z,14948
2019-02-22T09:55:58.881Z,15336
2019-02-22T09:57:09.007Z,15508
2019-02-22T09:58:18.726Z,16544
2019-02-22T09:59:28.447Z,17440
2019-02-22T10:00:38.409Z,17120
2019-02-22T10:01:48.034Z,17536
2019-02-22T10:02:58.089Z,18336
2019-02-22T10:04:07.806Z,19488
2019-02-22T10:05:17.575Z,19104
2019-02-22T10:06:27.549Z,19296
2019-02-22T10:07:37.313Z,20352
2019-02-22T10:08:47.347Z,19808
2019-02-22T10:09:57.118Z,20320
2019-02-22T10:11:07.077Z,21984
2019-02-22T10:12:17.069Z,22528
2019-02-22T10:13:26.830Z,21600
2019-02-22T10:14:37.051Z,22656
2019-02-22T10:15:47.058Z,23808
2019-02-22T10:16:56.808Z,23392
2019-02-22T10:18:06.773Z,23552
2019-02-22T10:19:16.496Z,23648
2019-02-22T10:20:25.969Z,23808
2019-02-22T10:21:35.938Z,23648
2019-02-22T10:22:45.886Z,25344
2019-02-22T10:23:55.889Z,26784
2019-02-22T10:25:05.848Z,27328
2019-02-22T10:26:15.871Z,25248
2019-02-22T10:27:25.840Z,27840
2019-02-22T10:28:35.843Z,27168
2019-02-22T10:29:45.825Z,29152
2019-02-22T10:30:55.788Z,29248
2019-02-22T10:32:05.631Z,28544
2019-02-22T10:33:15.159Z,30208
2019-02-22T10:34:25.127Z,31712
2019-02-22T10:35:35.301Z,30816
2019-02-22T10:36:52.656Z,32480
2019-02-22T10:38:02.574Z,32704
2019-02-22T10:39:13.411Z,33152
2019-02-22T10:40:23.446Z,33920
2019-02-22T10:41:33.161Z,34944
2019-02-22T10:42:42.858Z,36096
2019-02-22T10:43:52.341Z,35136
2019-02-22T10:45:01.831Z,37088
2019-02-22T10:46:11.588Z,37536
2019-02-22T10:47:21.368Z,38720
2019-02-22T10:48:31.131Z,39168
2019-02-22T10:49:41.217Z,39168
2019-02-22T10:50:51.220Z,40896
2019-02-22T10:52:00.698Z,43456
2019-02-22T10:53:10.676Z,41888
2019-02-22T10:54:20.450Z,42080
2019-02-22T10:55:30.414Z,44320
2019-02-22T10:56:41.808Z,45888
2019-02-22T10:57:51.984Z,46208
2019-02-22T10:59:01.980Z,46080
2019-02-22T11:00:11.760Z,45664
2019-02-22T11:01:21.736Z,47008
2019-02-22T11:02:33.753Z,46016
2019-02-22T11:03:43.554Z,47840
2019-02-22T11:04:53.501Z,49856
2019-02-22T11:06:03.448Z,50400
2019-02-22T11:07:13.151Z,49376
2019-02-22T11:08:23.160Z,50368
2019-02-22T11:09:32.882Z,51744
2019-02-22T11:10:42.336Z,52576
2019-02-22T11:11:52.032Z,53216
2019-02-22T11:13:01.965Z,50368
2019-02-22T11:14:11.675Z,47904
2019-02-22T11:15:20.920Z,46720
2019-02-22T11:16:30.913Z,50496
2019-02-22T11:17:40.369Z,55040
2019-02-22T11:18:50.078Z,56896
2019-02-22T11:19:59.596Z,59392
2019-02-22T11:21:09.597Z,61408
2019-02-22T11:22:19.109Z,60320
2019-02-22T11:23:29.090Z,58784
2019-02-22T11:24:38.936Z,59040
2019-02-22T11:25:48.937Z,59200
2019-02-22T11:26:59.120Z,60032
2019-02-22T11:28:09.088Z,58464
2019-02-22T11:29:19.312Z,61280
2019-02-22T11:30:29.028Z,63584
2019-02-22T11:31:38.795Z,63424
2019-02-22T11:32:48.803Z,64544
2019-02-22T11:33:58.500Z,65280
2019-02-22T11:35:08.229Z,64416
2019-02-22T11:36:18.239Z,63872
2019-02-22T11:37:27.961Z,64096
2019-02-22T11:38:37.674Z,68480
2019-02-22T11:39:47.154Z,67744
2019-02-22T11:40:56.881Z,66496
2019-02-22T11:42:06.095Z,69056
2019-02-22T11:43:15.833Z,69984
2019-02-22T11:44:25.548Z,67872
2019-02-22T11:45:35.335Z,71744
2019-02-22T11:46:45.348Z,69536
2019-02-22T11:48:13.481Z,66048
2019-02-22T11:49:23.198Z,66528
2019-02-22T11:50:33.211Z,66976
2019-02-22T11:51:43.184Z,68288
2019-02-22T11:52:52.941Z,69728
2019-02-22T11:54:02.703Z,70784
2019-02-22T11:55:12.668Z,70912
2019-02-22T11:56:22.140Z,69088
2019-02-22T11:57:32.154Z,71424
2019-02-22T11:58:42.159Z,74720
2019-02-22T11:59:52.110Z,74784
2019-02-22T12:01:02.084Z,74208
2019-02-22T12:02:11.885Z,72704
2019-02-22T12:03:31.851Z,71424
2019-02-22T12:04:41.811Z,73440
2019-02-22T12:05:51.515Z,71904
2019-02-22T12:07:00.986Z,75616
2019-02-22T12:08:10.703Z,75936
2019-02-22T12:09:20.678Z,75648
2019-02-22T12:10:30.640Z,75328
2019-02-22T12:11:40.695Z,84224
2019-02-22T12:12:50.994Z,86752
2019-02-22T12:14:00.952Z,83776
2019-02-22T12:15:10.964Z,77568
2019-02-22T12:16:20.942Z,76128
2019-02-22T12:17:30.691Z,78688
2019-02-22T12:18:41.267Z,80640
2019-02-22T12:19:51.237Z,84832
2019-02-22T12:21:01.318Z,80384
2019-02-22T12:22:11.293Z,79936
2019-02-22T12:23:20.996Z,80992
2019-02-22T12:24:30.991Z,78848
2019-02-22T12:25:40.934Z,84064
2019-02-22T12:26:52.261Z,77344
2019-02-22T12:28:02.037Z,78272
2019-02-22T12:29:11.760Z,77376
2019-02-22T12:30:21.813Z,58688
2019-02-22T12:31:33.408Z,63584
2019-02-22T12:32:44.431Z,78784
2019-02-22T12:33:54.785Z,78848
2019-02-22T12:35:04.784Z,82912
2019-02-22T12:36:16.823Z,81376
2019-02-22T12:37:26.821Z,80608
2019-02-22T12:38:36.526Z,80128
2019-02-22T12:39:46.250Z,80224
2019-02-22T12:40:56.226Z,83232
2019-02-22T12:42:05.676Z,87552
2019-02-22T12:43:15.695Z,84448
2019-02-22T12:44:25.661Z,81376
2019-02-22T12:45:35.634Z,80800
2019-02-22T12:46:45.618Z,84256
2019-02-22T12:47:55.610Z,86432
2019-02-22T12:49:05.585Z,88704
2019-02-22T12:50:15.557Z,80864
2019-02-22T12:51:25.520Z,85536
2019-02-22T12:52:35.215Z,92512
2019-02-22T12:53:45.217Z,88768
2019-02-22T12:54:54.923Z,88896
2019-02-22T12:56:04.658Z,90368
2019-02-22T12:57:14.387Z,89344
2019-02-22T12:58:24.375Z,84864
2019-02-22T12:59:34.371Z,88000
2019-02-22T13:00:44.344Z,96256
2019-02-22T13:01:54.329Z,94080
2019-02-22T13:03:09.395Z,94752
2019-02-22T13:04:19.631Z,87680
2019-02-22T13:05:29.356Z,90048
2019-02-22T13:06:39.308Z,92352
2019-02-22T13:07:49.285Z,90720
2019-02-22T13:09:00.130Z,100384
2019-02-22T13:10:10.124Z,92544
2019-02-22T13:11:20.107Z,92256
2019-02-22T13:12:29.818Z,86496
2019-02-22T13:13:39.779Z,94112
2019-02-22T13:14:49.750Z,84928
2019-02-22T13:15:59.702Z,91776
2019-02-22T13:17:09.665Z,96128
2019-02-22T13:18:19.641Z,89664
2019-02-22T13:19:29.621Z,89504
2019-02-22T13:20:39.352Z,86368
2019-02-22T13:21:49.073Z,90496
2019-02-22T13:22:59.057Z,91424
2019-02-22T13:24:09.074Z,93984
2019-02-22T13:25:18.880Z,91584
2019-02-22T13:26:28.645Z,99776
2019-02-22T13:27:37.871Z,101504
2019-02-22T13:28:47.618Z,98464
2019-02-22T13:29:57.673Z,99552
2019-02-22T13:31:07.576Z,97760
2019-02-22T13:32:17.297Z,94272
2019-02-22T13:33:27.108Z,95904
2019-02-22T13:34:36.891Z,97696
2019-02-22T13:35:49.541Z,91712
2019-02-22T13:36:59.516Z,94752
2019-02-22T13:38:09.549Z,96224
2019-02-22T13:39:19.546Z,90368
2019-02-22T13:40:29.523Z,106176
2019-02-22T13:41:39.497Z,100736
2019-02-22T13:42:49.502Z,100000
2019-02-22T13:43:59.234Z,100480
2019-02-22T13:45:08.954Z,100800
2019-02-22T13:46:18.943Z,112608
2019-02-22T13:47:28.910Z,96416
2019-02-22T13:48:38.895Z,106752
2019-02-22T13:49:49.414Z,97056
2019-02-22T13:50:59.370Z,96480
2019-02-22T13:52:09.349Z,93728
2019-02-22T13:53:19.365Z,95488
2019-02-22T13:54:29.353Z,96192
2019-02-22T13:55:39.075Z,98976
2019-02-22T13:56:49.053Z,98816
2019-02-22T13:57:58.541Z,102112
2019-02-22T13:59:08.563Z,104224
2019-02-22T14:00:18.291Z,100192
2019-02-22T14:01:27.844Z,97472
2019-02-22T14:02:37.900Z,87264
2019-02-22T14:03:47.648Z,94976
2019-02-22T14:04:57.835Z,93088
2019-02-22T14:06:10.067Z,86944
2019-02-22T14:07:20.033Z,86944
2019-02-22T14:08:29.255Z,78496
2019-02-22T14:09:39.215Z,83296
2019-02-22T14:10:49.186Z,85376
2019-02-22T14:11:58.909Z,86752
2019-02-22T14:13:08.618Z,92384
2019-02-22T14:14:18.341Z,89408
2019-02-22T14:15:39.728Z,97184
2019-02-22T14:16:49.707Z,97312
2019-02-22T14:17:59.403Z,84800
2019-02-22T14:19:09.352Z,89152
2019-02-22T14:20:19.303Z,80256
2019-02-22T14:21:29.327Z,73664
2019-02-22T14:22:39.071Z,76800
2019-02-22T14:23:49.064Z,76352
2019-02-22T14:24:59.030Z,81984
2019-02-22T14:26:09.001Z,84768
2019-02-22T14:27:18.949Z,77248
2019-02-22T14:28:28.925Z,74304
2019-02-22T14:29:38.891Z,64192
2019-02-22T14:30:48.853Z,79200
2019-02-22T14:31:58.566Z,69952
2019-02-22T14:33:08.531Z,63840
2019-02-22T14:34:18.494Z,65632
2019-02-22T14:35:28.449Z,63872
2019-02-22T14:36:38.569Z,74112
2019-02-22T14:37:48.870Z,64736
2019-02-22T14:38:59.220Z,59840
2019-02-22T14:40:10.798Z,63776
2019-02-22T14:41:20.507Z,67872
2019-02-22T14:42:30.450Z,64320
2019-02-22T14:43:40.407Z,69024
2019-02-22T14:44:50.357Z,74656
2019-02-22T14:46:00.515Z,73056
2019-02-22T14:47:10.266Z,91200
2019-02-22T14:48:20.261Z,87904
2019-02-22T14:49:30.215Z,85888
2019-02-22T14:50:40.171Z,74592
2019-02-22T14:51:49.892Z,81216
2019-02-22T14:52:59.861Z,74784
2019-02-22T14:54:09.821Z,73376
2019-02-22T14:55:19.786Z,83584
2019-02-22T14:56:29.745Z,83392
2019-02-22T14:57:39.446Z,82560
2019-02-22T14:58:50.928Z,75136
2019-02-22T15:00:00.674Z,81504
2019-02-22T15:01:10.627Z,82528
2019-02-22T15:02:20.597Z,77376
2019-02-22T15:03:30.328Z,79488
2019-02-22T15:04:41.137Z,82528
2019-02-22T15:05:50.608Z,76928
2019-02-22T15:07:00.587Z,74208
2019-02-22T15:08:10.779Z,75872
2019-02-22T15:09:20.509Z,72064
2019-02-22T15:10:30.492Z,71776
2019-02-22T15:11:40.445Z,73152
2019-02-22T15:12:50.419Z,69152
2019-02-22T15:14:00.376Z,74688
2019-02-22T15:15:10.353Z,67136
2019-02-22T15:16:20.321Z,63744
2019-02-22T15:17:32.278Z,58912
2019-02-22T15:18:42.000Z,26784
2019-02-22T15:19:51.729Z,36576
2019-02-22T15:21:01.689Z,63968
2019-02-22T15:22:11.658Z,57696
2019-02-22T15:23:21.615Z,62080
2019-02-22T15:24:32.922Z,58176
2019-02-22T15:25:42.927Z,55904
2019-02-22T15:26:53.966Z,68768
2019-02-22T15:28:03.907Z,63776
2019-02-22T15:29:13.843Z,59008
2019-02-22T15:30:23.999Z,65984
2019-02-22T15:31:43.266Z,64864
2019-02-22T15:32:52.994Z,49344
2019-02-22T15:34:04.598Z,37216
2019-02-22T15:35:14.322Z,48320
2019-02-22T15:36:24.040Z,55168
2019-02-22T15:37:34.003Z,49216
2019-02-22T15:38:43.762Z,44672
2019-02-22T15:39:53.824Z,46528
2019-02-22T15:41:03.916Z,41792
2019-02-22T15:42:13.753Z,42080
2019-02-22T15:43:23.845Z,33344
2019-02-22T15:44:33.947Z,12992
2019-02-22T15:45:43.949Z,17696
2019-02-22T15:46:55.227Z,15904
2019-02-22T15:48:05.189Z,5524
2019-02-22T15:49:15.255Z,5040
2019-02-22T15:50:24.996Z,4832
2019-02-22T15:51:34.974Z,4716
2019-02-22T15:52:45.061Z,4616
2019-02-22T15:53:55.313Z,4516
2019-02-22T15:55:05.010Z,4408
2019-02-22T15:56:14.969Z,4296
2019-02-22T15:57:27.611Z,4176
2019-02-22T15:58:37.565Z,4032
2019-02-22T15:59:47.586Z,3864